Time;durP1;ratioP1;P1;durP2;ratioP2;P2;SDS_P1;SDS_P2;PMS_P1;PMS_P2;Temp;Humidity;BMP_temperature;BMP_pressure;BME280_temperature;BME280_humidity;BME280_pressure;Samples;Min_cycle;Max_cycle;Signal;HPM_P1;HPM_P2
2022/08/09 02:47:35;;;;;;;2.70;1.17;;;16.50;99.90;;;;;;5209100;23;88573;-86
2022/08/09 02:50:19;;;;;;;2.25;1.23;;;16.50;99.90;;;;;;4833354;29;87470;-83
2022/08/09 02:53:03;;;;;;;4.28;1.20;;;16.60;99.90;;;;;;4835156;29;86815;-83
2022/08/09 02:55:30;;;;;;;2.30;1.10;;;16.50;99.90;;;;;;4829275;29;87266;-83
2022/08/09 02:57:58;;;;;;;6.55;1.52;;;16.40;99.90;;;;;;4828669;29;87183;-83
2022/08/09 03:00:25;;;;;;;3.35;1.58;;;16.30;99.90;;;;;;4832865;29;88351;-83
2022/08/09 03:02:55;;;;;;;2.67;1.60;;;16.10;99.90;;;;;;4837018;29;86457;-83
2022/08/09 03:05:22;;;;;;;2.85;1.20;;;16.10;99.90;;;;;;4835480;29;86927;-83
2022/08/09 03:07:50;;;;;;;3.25;1.20;;;16.10;99.90;;;;;;4835473;29;87150;-83
2022/08/09 03:10:16;;;;;;;2.35;1.33;;;16.20;99.90;;;;;;4835687;29;87291;-83
2022/08/09 03:12:43;;;;;;;2.42;1.45;;;16.20;99.90;;;;;;4820249;29;87287;-82
2022/08/09 03:15:11;;;;;;;3.75;1.25;;;16.10;99.90;;;;;;4825712;29;87512;-82
2022/08/09 03:17:38;;;;;;;3.30;1.75;;;16.30;99.90;;;;;;4829716;29;86311;-81
2022/08/09 03:20:06;;;;;;;3.58;1.73;;;16.20;99.90;;;;;;4828711;29;86962;-82
2022/08/09 03:22:36;;;;;;;2.83;1.20;;;16.20;99.90;;;;;;4827877;29;87080;-82
2022/08/09 03:25:02;;;;;;;3.00;1.58;;;16.20;99.90;;;;;;4828585;29;88102;-82
2022/08/09 03:27:29;;;;;;;6.57;1.40;;;16.30;99.90;;;;;;4830932;29;87034;-82
2022/08/09 03:29:56;;;;;;;4.10;1.77;;;16.20;99.90;;;;;;4830125;29;87116;-81
2022/08/09 03:32:23;;;;;;;3.15;1.45;;;16.10;99.90;;;;;;4825967;29;87061;-81
2022/08/09 03:34:49;;;;;;;2.17;1.30;;;16.10;99.90;;;;;;4829093;29;86958;-83
2022/08/09 03:37:15;;;;;;;3.25;1.55;;;16.00;99.90;;;;;;4829539;29;87263;-85
2022/08/09 03:39:41;;;;;;;4.85;1.40;;;16.00;99.90;;;;;;4825784;29;88919;-83
2022/08/09 03:42:06;;;;;;;2.80;1.35;;;16.00;99.90;;;;;;4829819;29;87086;-86
2022/08/09 03:44:33;;;;;;;2.92;1.42;;;16.00;99.90;;;;;;4833033;29;86979;-85
2022/08/09 03:46:58;;;;;;;3.92;1.42;;;16.00;99.90;;;;;;4831973;29;86900;-85
2022/08/09 03:49:27;;;;;;;2.53;1.50;;;16.00;99.90;;;;;;4822648;29;90324;-84
2022/08/09 03:51:57;;;;;;;2.30;1.40;;;16.00;99.90;;;;;;4828983;29;87299;-86
2022/08/09 03:54:25;;;;;;;;;;;16.00;99.90;;;;;;4835149;29;86742;-85
2022/08/09 03:56:52;;;;;;;3.85;1.58;;;16.00;99.90;;;;;;4836263;29;86871;-85
2022/08/09 03:59:17;;;;;;;3.33;1.42;;;16.00;99.90;;;;;;4831463;29;87360;-85
2022/08/09 04:01:44;;;;;;;3.63;1.58;;;16.00;99.90;;;;;;4830951;29;87105;-88
2022/08/09 04:04:11;;;;;;;3.50;1.90;;;16.00;99.90;;;;;;4832896;29;87337;-85
2022/08/09 04:06:38;;;;;;;6.15;2.00;;;16.00;99.90;;;;;;4833580;29;86436;-85
2022/08/09 04:09:05;;;;;;;3.58;1.90;;;16.10;99.90;;;;;;4821562;29;87653;-85
2022/08/09 04:12:04;;;;;;;3.63;2.15;;;16.10;99.90;;;;;;4833307;29;87227;-85
2022/08/09 04:14:29;;;;;;;4.03;1.67;;;16.20;99.90;;;;;;4794494;29;88039;-84
2022/08/09 04:16:55;;;;;;;4.97;2.22;;;16.20;99.90;;;;;;4833189;29;88216;-85
2022/08/09 04:19:22;;;;;;;4.13;2.20;;;16.10;99.90;;;;;;4833819;29;87037;-84
2022/08/09 04:21:47;;;;;;;4.13;1.90;;;16.00;99.90;;;;;;4832419;29;87792;-83
2022/08/09 04:24:13;;;;;;;6.28;1.90;;;16.00;99.90;;;;;;4833441;29;86698;-83
2022/08/09 04:26:39;;;;;;;3.78;1.90;;;16.10;99.90;;;;;;4827272;29;87271;-83
2022/08/09 04:29:05;;;;;;;4.10;2.15;;;16.20;99.90;;;;;;4821053;29;86972;-85
2022/08/09 04:31:31;;;;;;;5.20;1.63;;;16.30;99.90;;;;;;4834107;29;86916;-83
2022/08/09 04:33:57;;;;;;;7.68;1.85;;;16.40;99.90;;;;;;4829839;29;87229;-85
2022/08/09 04:36:28;;;;;;;3.83;1.90;;;16.60;99.90;;;;;;4829768;29;88786;-84
2022/08/09 04:38:55;;;;;;;4.63;2.05;;;17.10;99.90;;;;;;4821346;29;89094;-84
2022/08/09 04:41:22;;;;;;;4.03;1.70;;;17.80;99.90;;;;;;4831715;29;87950;-83
2022/08/09 04:43:48;;;;;;;2.72;1.52;;;18.50;99.90;;;;;;4833558;29;87101;-83
2022/08/09 04:46:13;;;;;;;3.97;1.80;;;19.10;99.00;;;;;;4833427;29;87500;-83
2022/08/09 04:48:39;;;;;;;2.85;1.80;;;19.80;96.60;;;;;;4839273;29;87165;-84
2022/08/09 04:51:05;;;;;;;4.93;1.60;;;20.30;93.70;;;;;;4831412;29;87355;-84
2022/08/09 04:53:30;;;;;;;2.90;1.80;;;20.70;91.30;;;;;;4831103;29;87018;-84
2022/08/09 04:55:57;;;;;;;4.82;1.90;;;21.10;90.40;;;;;;4830200;29;86564;-83
2022/08/09 04:58:23;;;;;;;3.88;1.80;;;21.60;88.10;;;;;;4826018;29;87712;-85
2022/08/09 05:00:48;;;;;;;3.65;1.83;;;22.00;85.70;;;;;;4830955;29;88228;-84
2022/08/09 05:03:14;;;;;;;4.75;1.40;;;22.40;83.10;;;;;;4824723;29;87804;-81
2022/08/09 05:05:40;;;;;;;3.47;1.45;;;22.80;79.20;;;;;;4830142;29;87231;-80
2022/08/09 05:08:06;;;;;;;5.22;1.60;;;23.30;77.70;;;;;;4826896;29;87315;-80
2022/08/09 05:10:31;;;;;;;3.22;1.58;;;23.80;75.20;;;;;;4831702;29;87809;-80
2022/08/09 05:12:57;;;;;;;3.65;1.52;;;24.00;72.90;;;;;;4832015;29;87566;-83
2022/08/09 05:15:23;;;;;;;4.47;1.42;;;24.30;71.90;;;;;;4829537;29;86954;-82
2022/08/09 05:17:49;;;;;;;4.15;1.38;;;24.60;70.20;;;;;;4831407;29;87751;-82
2022/08/09 05:20:15;;;;;;;3.90;1.10;;;25.30;69.60;;;;;;4828245;29;86226;-81
2022/08/09 05:22:41;;;;;;;3.70;1.50;;;26.00;66.70;;;;;;4827541;29;86683;-83
2022/08/09 05:25:07;;;;;;;2.80;1.30;;;26.50;64.90;;;;;;4827697;29;87503;-79
2022/08/09 05:27:33;;;;;;;2.65;1.00;;;26.90;62.40;;;;;;4825074;29;87978;-79
2022/08/09 05:29:58;;;;;;;2.75;1.13;;;27.30;59.20;;;;;;4826252;29;88221;-81
2022/08/09 05:32:24;;;;;;;2.40;1.30;;;27.80;59.30;;;;;;4824424;29;87400;-82
2022/08/09 05:34:50;;;;;;;2.72;1.00;;;28.00;55.40;;;;;;4823427;29;86861;-80
2022/08/09 05:37:16;;;;;;;4.47;1.52;;;27.30;56.40;;;;;;4825338;29;88297;-79
2022/08/09 05:39:41;;;;;;;2.50;1.27;;;27.00;60.20;;;;;;4826538;29;87853;-79
2022/08/09 05:42:07;;;;;;;3.10;1.05;;;28.10;57.50;;;;;;4824744;29;86919;-80
2022/08/09 05:44:33;;;;;;;2.45;1.35;;;29.30;55.70;;;;;;4824377;29;86333;-80
2022/08/09 05:46:59;;;;;;;3.92;1.10;;;30.20;53.40;;;;;;4824522;29;87062;-79
2022/08/09 05:49:25;;;;;;;1.63;1.10;;;30.70;51.40;;;;;;4827191;29;87632;-80
2022/08/09 05:51:51;;;;;;;4.32;1.77;;;31.00;51.90;;;;;;4825337;29;90256;-81
2022/08/09 05:54:17;;;;;;;5.22;1.60;;;31.60;49.90;;;;;;4827383;29;87060;-81
2022/08/09 05:56:42;;;;;;;8.93;1.67;;;31.40;49.80;;;;;;4829744;29;87434;-81
2022/08/09 05:59:08;;;;;;;3.67;1.42;;;28.80;53.00;;;;;;4829067;29;86954;-81
2022/08/09 06:01:34;;;;;;;5.43;1.92;;;27.10;57.40;;;;;;4829787;29;87134;-82
2022/08/09 06:04:01;;;;;;;4.25;1.70;;;27.50;56.10;;;;;;4828444;29;86971;-82
2022/08/09 06:06:26;;;;;;;2.83;1.23;;;27.70;57.10;;;;;;4830678;29;88311;-82
2022/08/09 06:08:52;;;;;;;3.20;1.63;;;29.40;54.40;;;;;;4830262;29;86945;-80
2022/08/09 06:11:18;;;;;;;7.93;1.55;;;31.30;50.20;;;;;;4825224;29;87063;-80
2022/08/09 06:13:44;;;;;;;2.67;1.02;;;31.80;48.90;;;;;;4829813;29;87196;-82
2022/08/09 06:16:09;;;;;;;2.15;1.35;;;32.10;50.00;;;;;;4830709;29;89148;-80
2022/08/09 06:18:36;;;;;;;3.25;1.40;;;32.40;47.30;;;;;;4820266;29;89272;-81
2022/08/09 06:21:03;;;;;;;3.75;1.58;;;31.60;49.20;;;;;;4824365;29;87865;-80
2022/08/09 06:23:31;;;;;;;4.10;1.50;;;31.30;49.40;;;;;;4830214;29;86890;-80
2022/08/09 06:25:57;;;;;;;2.95;1.73;;;31.60;49.70;;;;;;4831722;29;86742;-81
2022/08/09 06:28:23;;;;;;;2.53;1.48;;;32.40;48.30;;;;;;4830386;29;87038;-80
2022/08/09 06:30:49;;;;;;;2.67;1.55;;;33.60;47.20;;;;;;4834173;29;86551;-81
2022/08/09 06:33:14;;;;;;;2.83;1.35;;;34.40;45.40;;;;;;4834456;29;86317;-80
2022/08/09 06:35:40;;;;;;;2.80;1.65;;;35.40;43.70;;;;;;4825265;29;87333;-81
2022/08/09 06:38:06;;;;;;;4.47;2.13;;;35.00;45.80;;;;;;4835430;29;87033;-80
2022/08/09 06:40:32;;;;;;;2.45;1.52;;;35.70;43.50;;;;;;4834700;29;87874;-80
2022/08/09 06:42:59;;;;;;;3.20;2.10;;;36.80;42.60;;;;;;4830634;29;86814;-80
2022/08/09 06:45:25;;;;;;;2.15;1.58;;;37.30;41.50;;;;;;4832785;29;87309;-87
2022/08/09 06:47:51;;;;;;;3.20;2.15;;;37.70;41.60;;;;;;4831480;29;87031;-84
2022/08/09 06:50:18;;;;;;;4.82;2.40;;;37.80;40.60;;;;;;4831805;29;87111;-86
2022/08/09 06:52:46;;;;;;;2.45;1.92;;;38.20;40.20;;;;;;4834939;29;87027;-87
2022/08/09 06:55:12;;;;;;;;;;;38.50;39.70;;;;;;4831836;29;87638;-84
2022/08/09 06:57:38;;;;;;;3.63;2.05;;;39.10;38.80;;;;;;4832322;29;87292;-86
2022/08/09 07:00:05;;;;;;;2.53;2.25;;;39.40;38.80;;;;;;4831614;29;86961;-85
2022/08/09 07:02:31;;;;;;;4.20;2.28;;;39.00;39.20;;;;;;4833265;29;87154;-81
2022/08/09 07:04:56;;;;;;;2.78;1.90;;;39.60;39.00;;;;;;4823118;29;87854;-84
2022/08/09 07:07:22;;;;;;;4.07;2.38;;;40.30;38.40;;;;;;4832569;29;87115;-86
2022/08/09 07:09:48;;;;;;;3.90;2.10;;;40.90;36.30;;;;;;4829853;29;87103;-83
2022/08/09 07:12:14;;;;;;;2.97;2.15;;;40.20;38.30;;;;;;4828018;29;87178;-85
2022/08/09 07:14:39;;;;;;;4.00;2.25;;;40.70;37.40;;;;;;4830311;29;87139;-84
2022/08/09 07:17:05;;;;;;;3.05;2.75;;;41.30;37.00;;;;;;4830592;29;87346;-83
2022/08/09 07:19:31;;;;;;;3.67;2.35;;;41.50;36.30;;;;;;4830694;29;86828;-85
2022/08/09 07:21:57;;;;;;;7.15;3.08;;;40.90;36.90;;;;;;4826146;29;86195;-83
2022/08/09 07:24:22;;;;;;;4.13;3.03;;;40.70;37.00;;;;;;4828276;29;88890;-88
2022/08/09 07:26:48;;;;;;;3.58;2.92;;;41.30;37.00;;;;;;4830244;29;86988;-83
2022/08/09 07:29:14;;;;;;;3.65;2.78;;;41.00;37.20;;;;;;4826885;29;87947;-81
2022/08/09 07:31:40;;;;;;;3.17;2.65;;;42.60;35.00;;;;;;4820336;29;86394;-85
2022/08/09 07:34:07;;;;;;;3.42;3.13;;;43.20;34.30;;;;;;4828262;29;88090;-82
2022/08/09 07:36:33;;;;;;;5.20;3.47;;;42.90;35.40;;;;;;4827113;29;87358;-88
2022/08/09 07:38:58;;;;;;;3.05;2.70;;;43.10;35.30;;;;;;4826685;29;86965;-84
2022/08/09 07:41:25;;;;;;;4.45;3.33;;;42.70;35.80;;;;;;4830199;29;87086;-83
2022/08/09 07:43:50;;;;;;;4.47;4.07;;;43.30;35.00;;;;;;4833320;29;87640;-81
2022/08/09 07:46:16;;;;;;;3.83;3.45;;;42.60;35.70;;;;;;4829874;29;86540;-81
2022/08/09 07:48:42;;;;;;;3.45;3.15;;;43.00;35.30;;;;;;4827504;29;86842;-83
2022/08/09 07:51:08;;;;;;;4.80;2.35;;;44.50;33.70;;;;;;4833646;29;87097;-81
2022/08/09 07:53:34;;;;;;;5.60;4.60;;;45.30;33.10;;;;;;4833217;29;88216;-81
2022/08/09 07:56:00;;;;;;;3.65;3.35;;;45.10;33.50;;;;;;4834760;29;87705;-81
2022/08/09 07:58:25;;;;;;;4.10;3.58;;;45.60;33.70;;;;;;4832436;29;87122;-83
2022/08/09 08:00:51;;;;;;;5.53;3.72;;;45.70;33.30;;;;;;4838403;29;87184;-84
2022/08/09 08:03:17;;;;;;;2.97;2.55;;;45.00;34.10;;;;;;4836189;29;87179;-83
2022/08/09 08:05:43;;;;;;;4.50;3.55;;;44.70;34.60;;;;;;4842204;29;86511;-82
2022/08/09 08:08:08;;;;;;;4.20;3.17;;;43.90;34.90;;;;;;4838242;29;87084;-88
2022/08/09 08:10:35;;;;;;;3.47;3.17;;;43.40;34.70;;;;;;4831074;29;86325;-84
2022/08/09 08:13:01;;;;;;;4.57;3.30;;;43.10;35.20;;;;;;4830092;29;87279;-86
2022/08/09 08:15:27;;;;;;;3.42;3.08;;;43.10;35.40;;;;;;4831327;29;87740;-84
2022/08/09 08:17:53;;;;;;;3.38;3.08;;;44.00;34.90;;;;;;4827970;29;87983;-86
2022/08/09 08:20:20;;;;;;;3.60;3.03;;;45.10;33.10;;;;;;4826702;29;87085;-90
2022/08/09 08:22:46;;;;;;;4.13;3.65;;;43.90;34.80;;;;;;4830379;29;87564;-83
2022/08/09 08:25:12;;;;;;;4.80;3.33;;;45.30;33.50;;;;;;4833110;29;87837;-82
2022/08/09 08:27:37;;;;;;;4.60;3.10;;;47.00;32.00;;;;;;4834779;29;87058;-83
2022/08/09 08:30:04;;;;;;;5.40;4.90;;;45.90;32.40;;;;;;4833740;29;86932;-83
2022/08/09 08:32:30;;;;;;;4.45;3.78;;;45.40;33.30;;;;;;4828698;29;87236;-82
2022/08/09 08:34:59;;;;;;;5.25;4.75;;;46.60;32.30;;;;;;4833433;29;86359;-86
2022/08/09 08:37:28;;;;;;;3.83;3.45;;;47.10;32.00;;;;;;4829980;29;86963;-87
2022/08/09 08:39:55;;;;;;;5.60;5.05;;;45.90;32.80;;;;;;4838512;29;87064;-84
2022/08/09 08:42:21;;;;;;;5.03;4.53;;;47.00;31.00;;;;;;4830116;29;88667;-83
2022/08/09 08:44:52;;;;;;;5.13;4.65;;;47.30;31.20;;;;;;4836248;29;87215;-82
2022/08/09 08:47:18;;;;;;;4.85;4.38;;;46.80;32.00;;;;;;4834864;29;87072;-82
2022/08/09 08:49:45;;;;;;;5.72;5.18;;;47.80;31.20;;;;;;4829847;29;86737;-82
2022/08/09 08:52:11;;;;;;;6.13;5.53;;;47.00;31.20;;;;;;4834778;29;88125;-84
2022/08/09 08:54:36;;;;;;;4.40;4.00;;;47.10;31.10;;;;;;4834356;29;88321;-82
2022/08/09 08:57:03;;;;;;;5.10;4.60;;;47.70;30.90;;;;;;4834275;29;86937;-84
2022/08/09 08:59:29;;;;;;;5.97;4.63;;;48.30;30.40;;;;;;4831963;29;86381;-84
2022/08/09 09:01:55;;;;;;;5.95;5.38;;;49.90;29.70;;;;;;4835077;29;87276;-84
2022/08/09 09:04:25;;;;;;;5.13;4.70;;;49.80;29.30;;;;;;4833344;29;87600;-82
2022/08/09 09:06:56;;;;;;;6.07;5.57;;;50.60;29.30;;;;;;4831846;29;87832;-82
2022/08/09 09:09:25;;;;;;;5.18;4.75;;;51.20;28.90;;;;;;4835094;29;86693;-83
2022/08/09 09:11:51;;;;;;;5.82;5.32;;;50.30;29.40;;;;;;4829146;29;87597;-84
2022/08/09 09:14:21;;;;;;;7.40;6.13;;;50.70;28.70;;;;;;4834390;29;86574;-85
2022/08/09 09:16:47;;;;;;;7.00;6.35;;;51.50;28.00;;;;;;4832768;29;86928;-84
2022/08/09 09:19:13;;;;;;;5.22;4.75;;;52.40;27.80;;;;;;4840655;29;87148;-83
2022/08/09 09:21:58;;;;;;;7.15;6.43;;;51.30;28.40;;;;;;4834250;29;87014;-83
2022/08/09 09:24:29;;;;;;;7.50;6.88;;;52.20;27.60;;;;;;4825512;29;88354;-84
2022/08/09 09:26:57;;;;;;;9.73;6.47;;;51.80;27.90;;;;;;4830534;29;87037;-82
2022/08/09 09:29:29;;;;;;;;;;;52.50;27.40;;;;;;4834073;29;87079;-82
2022/08/09 09:31:55;;;;;;;6.93;6.32;;;51.50;28.10;;;;;;4832765;29;89564;-84
2022/08/09 09:34:21;;;;;;;8.75;7.95;;;50.80;28.10;;;;;;4835664;29;87211;-85
2022/08/09 09:36:47;;;;;;;7.38;6.68;;;51.20;28.00;;;;;;4835927;29;87046;-82
2022/08/09 09:39:12;;;;;;;9.13;8.38;;;52.10;27.90;;;;;;4830454;29;86989;-83
2022/08/09 09:41:38;;;;;;;8.80;7.97;;;52.60;27.60;;;;;;4833212;29;87294;-82
2022/08/09 09:44:06;;;;;;;7.03;6.40;;;52.40;27.20;;;;;;4835628;29;88839;-85
2022/08/09 09:46:39;;;;;;;8.75;8.00;;;52.70;27.20;;;;;;4828084;29;87202;-85
2022/08/09 09:49:06;;;;;;;8.38;7.75;;;52.80;26.80;;;;;;4830633;29;86355;-87
2022/08/09 09:51:34;;;;;;;7.93;7.32;;;53.20;26.60;;;;;;4834549;29;87037;-83
2022/08/09 09:54:17;;;;;;;7.50;6.80;;;50.50;28.50;;;;;;4834511;29;86929;-87
2022/08/09 09:56:48;;;;;;;6.63;6.00;;;49.70;28.40;;;;;;4826733;29;87868;-85
2022/08/09 09:59:21;;;;;;;9.57;8.82;;;49.90;28.10;;;;;;4833820;29;87072;-83
2022/08/09 10:02:00;;;;;;;7.60;6.90;;;48.90;28.60;;;;;;4828090;29;87117;-82
2022/08/09 10:04:26;;;;;;;8.23;6.13;;;49.40;28.60;;;;;;4833673;29;87113;-84
2022/08/09 10:06:52;;;;;;;6.57;6.07;;;49.40;29.00;;;;;;4830393;29;86883;-89
2022/08/09 10:09:17;;;;;;;8.40;7.55;;;48.50;28.20;;;;;;4834443;29;89348;-83
2022/08/09 10:11:43;;;;;;;7.30;4.45;;;47.40;29.20;;;;;;4837973;29;88000;-84
2022/08/09 10:14:29;;;;;;;6.63;6.05;;;46.00;29.40;;;;;;4834331;29;86211;-82
2022/08/09 10:16:55;;;;;;;4.82;4.40;;;45.30;29.90;;;;;;4829234;29;87075;-87
2022/08/09 10:19:36;;;;;;;4.63;4.28;;;46.00;29.60;;;;;;4833579;29;86867;-82
2022/08/09 10:22:02;;;;;;;5.03;4.63;;;44.00;29.90;;;;;;4833569;29;89568;-84
2022/08/09 10:24:28;;;;;;;4.35;3.95;;;42.50;31.10;;;;;;4832380;29;87151;-85
2022/08/09 10:26:56;;;;;;;5.00;4.60;;;41.00;32.40;;;;;;4830349;29;87040;-86
2022/08/09 10:29:22;;;;;;;3.55;3.25;;;38.10;35.40;;;;;;4832113;29;86871;-81
2022/08/09 10:31:48;;;;;;;5.00;2.47;;;36.10;38.40;;;;;;4829610;29;86989;-80
2022/08/09 10:34:15;;;;;;;3.05;2.35;;;35.10;39.40;;;;;;4832687;29;87336;-80
2022/08/09 10:36:42;;;;;;;3.97;2.78;;;33.80;40.90;;;;;;4831765;29;87093;-80
2022/08/09 10:39:09;;;;;;;2.47;1.80;;;32.90;42.80;;;;;;4831739;29;86248;-81
2022/08/09 10:41:35;;;;;;;2.42;1.55;;;32.50;43.20;;;;;;4832816;29;87247;-80
2022/08/09 10:44:01;;;;;;;3.17;1.52;;;32.50;42.10;;;;;;4830424;29;86925;-80
2022/08/09 10:46:51;;;;;;;2.00;1.75;;;32.20;43.90;;;;;;4830781;29;87889;-80
2022/08/09 10:49:28;;;;;;;2.25;1.33;;;31.60;44.40;;;;;;4826146;29;87690;-80
2022/08/09 10:52:08;;;;;;;4.90;1.85;;;31.40;44.60;;;;;;4832401;29;87121;-80
2022/08/09 10:54:34;;;;;;;3.60;1.65;;;31.20;45.40;;;;;;4826378;29;87528;-81
2022/08/09 10:57:12;;;;;;;1.58;1.23;;;31.60;44.10;;;;;;4833447;29;87099;-79
2022/08/09 10:59:39;;;;;;;2.38;1.25;;;31.50;43.40;;;;;;4824419;29;86845;-80
2022/08/09 11:02:07;;;;;;;6.45;1.52;;;31.20;44.40;;;;;;4826809;29;87726;-80
2022/08/09 11:04:34;;;;;;;3.20;1.02;;;30.90;44.30;;;;;;4831195;29;87178;-79
2022/08/09 11:07:00;;;;;;;2.83;1.10;;;31.00;46.10;;;;;;4821646;29;87010;-80
2022/08/09 11:09:38;;;;;;;3.38;1.10;;;30.90;44.70;;;;;;4828885;29;86861;-80
2022/08/09 11:12:12;;;;;;;3.47;0.98;;;30.30;46.50;;;;;;4829250;29;88726;-82
2022/08/09 11:14:40;;;;;;;2.85;1.38;;;29.90;47.10;;;;;;4828414;29;88788;-80
2022/08/09 11:17:12;;;;;;;1.67;1.17;;;29.80;47.40;;;;;;4828496;29;87508;-82
2022/08/09 11:20:00;;;;;;;3.03;1.13;;;29.90;47.40;;;;;;4830994;29;87072;-79
2022/08/09 11:22:44;;;;;;;4.03;1.08;;;30.20;47.20;;;;;;4829095;29;87272;-80
2022/08/09 11:25:12;;;;;;;2.53;0.98;;;30.20;46.90;;;;;;4825362;29;87402;-80
2022/08/09 11:27:46;;;;;;;2.15;0.68;;;29.90;49.00;;;;;;4820520;29;87049;-80
2022/08/09 11:30:31;;;;;;;2.78;1.02;;;29.90;47.70;;;;;;4826379;29;86321;-79
2022/08/09 11:33:04;;;;;;;2.03;1.08;;;30.00;47.30;;;;;;4824037;29;87422;-82
2022/08/09 11:35:32;;;;;;;5.78;0.88;;;30.10;48.20;;;;;;4833859;29;88205;-80
2022/08/09 11:38:42;;;;;;;4.75;1.10;;;29.90;44.50;;;;;;4821955;29;87634;-80
2022/08/09 11:41:10;;;;;;;4.72;1.25;;;29.90;43.30;;;;;;4809495;29;86867;-80
2022/08/09 11:43:46;;;;;;;;;;;29.40;44.50;;;;;;4828461;29;88717;-80
2022/08/09 11:46:11;;;;;;;3.03;0.98;;;29.10;44.80;;;;;;4826807;29;86981;-81
2022/08/09 11:48:52;;;;;;;2.65;0.95;;;29.30;45.70;;;;;;4830486;29;87258;-80
2022/08/09 11:51:25;;;;;;;1.73;1.05;;;28.90;43.80;;;;;;4827741;29;87120;-83
2022/08/09 11:54:16;;;;;;;3.28;0.93;;;28.90;47.20;;;;;;4828059;29;87247;-80
2022/08/09 11:56:42;;;;;;;3.83;1.15;;;29.10;44.70;;;;;;4829951;29;86815;-80
2022/08/09 11:59:10;;;;;;;2.00;0.80;;;29.10;47.70;;;;;;4835697;29;87098;-81
2022/08/09 12:01:39;;;;;;;2.78;1.27;;;29.10;44.40;;;;;;4825950;29;87183;-80
2022/08/09 12:04:07;;;;;;;1.58;0.75;;;29.10;46.90;;;;;;4825043;29;88021;-80
2022/08/09 12:06:34;;;;;;;2.88;1.13;;;28.80;47.00;;;;;;4826605;29;87887;-79
2022/08/09 12:09:06;;;;;;;2.10;0.95;;;28.80;47.40;;;;;;4826988;29;86984;-79
2022/08/09 12:11:32;;;;;;;2.28;0.90;;;28.70;45.10;;;;;;4824579;29;87540;-79
2022/08/09 12:14:03;;;;;;;4.60;1.15;;;28.70;45.30;;;;;;4825025;29;87503;-79
2022/08/09 12:16:41;;;;;;;2.85;0.75;;;28.90;45.60;;;;;;4827224;29;86948;-80
2022/08/09 12:19:08;;;;;;;3.22;0.73;;;28.90;47.30;;;;;;4825134;29;86733;-82
2022/08/09 12:21:36;;;;;;;1.88;0.70;;;29.10;46.90;;;;;;4831921;29;86433;-80
2022/08/09 12:24:05;;;;;;;2.35;1.02;;;29.10;45.40;;;;;;4828350;29;87734;-80
2022/08/09 12:26:58;;;;;;;;;;;29.20;48.40;;;;;;4826470;29;87256;-81
2022/08/09 12:29:30;;;;;;;3.97;0.63;;;29.10;46.30;;;;;;4825028;29;88838;-79
2022/08/09 12:32:05;;;;;;;8.02;0.85;;;29.00;47.10;;;;;;4832299;29;86862;-80
2022/08/09 12:34:35;;;;;;;;;;;28.90;47.30;;;;;;4819871;29;88034;-80
2022/08/09 12:37:02;;;;;;;1.92;1.10;;;28.80;48.60;;;;;;4833872;29;86753;-80
2022/08/09 12:39:28;;;;;;;1.92;0.82;;;28.80;48.10;;;;;;4831613;29;86950;-79
2022/08/09 12:41:54;;;;;;;3.20;1.00;;;28.70;45.40;;;;;;4829581;29;86992;-79
2022/08/09 12:44:20;;;;;;;2.30;0.63;;;28.70;48.50;;;;;;4828079;29;87726;-79
2022/08/09 12:46:48;;;;;;;1.88;0.75;;;28.80;48.50;;;;;;4831014;29;87141;-78
2022/08/09 12:49:15;;;;;;;2.13;1.20;;;29.00;46.00;;;;;;4834206;29;87143;-79
2022/08/09 12:51:52;;;;;;;4.35;1.00;;;28.90;47.30;;;;;;4830926;29;86920;-78
2022/08/09 12:54:18;;;;;;;3.60;0.95;;;28.60;48.70;;;;;;4823638;29;89458;-79
2022/08/09 12:56:48;;;;;;;2.22;0.68;;;28.60;48.70;;;;;;4830698;29;88025;-80
2022/08/09 12:59:17;;;;;;;1.73;0.80;;;28.60;48.80;;;;;;4825373;29;86906;-79
2022/08/09 13:02:00;;;;;;;2.22;0.80;;;28.60;46.20;;;;;;4825164;29;87029;-79
2022/08/09 13:04:28;;;;;;;1.58;0.55;;;28.50;49.10;;;;;;4829943;29;87099;-79
2022/08/09 13:06:54;;;;;;;3.10;1.15;;;28.60;46.90;;;;;;4835246;29;87800;-79
2022/08/09 13:09:20;;;;;;;1.23;0.60;;;28.70;47.90;;;;;;4821915;29;86721;-78
2022/08/09 13:11:49;;;;;;;2.47;1.15;;;28.70;48.30;;;;;;4822363;29;86756;-79
2022/08/09 13:14:23;;;;;;;2.60;0.63;;;29.00;46.70;;;;;;4828638;29;88422;-78
2022/08/09 13:16:54;;;;;;;2.63;1.23;;;28.80;45.70;;;;;;4823669;29;87346;-80
2022/08/09 13:19:25;;;;;;;3.15;0.85;;;28.70;46.60;;;;;;4822808;29;88302;-79
2022/08/09 13:22:27;;;;;;;1.83;1.13;;;28.50;46.80;;;;;;4821672;29;87194;-79
2022/08/09 13:24:53;;;;;;;3.97;0.90;;;28.50;48.30;;;;;;4750535;29;87414;-79
2022/08/09 13:27:38;;;;;;;2.45;0.88;;;28.50;48.20;;;;;;4806583;29;87039;-82
2022/08/09 13:30:14;;;;;;;3.67;0.90;;;28.50;48.10;;;;;;4824299;29;87071;-79
2022/08/09 13:32:52;;;;;;;3.42;1.23;;;28.50;50.30;;;;;;4828270;29;87202;-78
2022/08/09 13:35:23;;;;;;;7.88;1.35;;;28.30;48.90;;;;;;4825345;29;88250;-79
2022/08/09 13:37:50;;;;;;;5.38;1.08;;;28.10;50.20;;;;;;4823385;29;87437;-80
2022/08/09 13:40:16;;;;;;;3.05;0.95;;;28.30;48.00;;;;;;4824581;29;87449;-78
2022/08/09 13:42:43;;;;;;;3.70;0.82;;;28.10;48.70;;;;;;4820699;29;87171;-77
2022/08/09 13:45:10;;;;;;;2.08;0.85;;;28.20;48.10;;;;;;4829059;29;89633;-78
2022/08/09 13:47:37;;;;;;;1.98;0.80;;;28.10;49.20;;;;;;4825147;29;87919;-78
2022/08/09 13:50:06;;;;;;;2.50;0.70;;;27.90;50.90;;;;;;4826127;29;87237;-78
2022/08/09 13:52:33;;;;;;;;;;;27.80;52.20;;;;;;4824360;29;87283;-78
2022/08/09 13:54:59;;;;;;;2.97;0.80;;;27.60;51.20;;;;;;4827016;29;87708;-78
2022/08/09 13:57:25;;;;;;;3.97;0.70;;;27.70;53.00;;;;;;4824616;29;87270;-78
2022/08/09 13:59:52;;;;;;;2.88;0.65;;;27.80;49.40;;;;;;4824738;29;87322;-78
2022/08/09 14:02:18;;;;;;;2.15;0.80;;;27.90;51.40;;;;;;4820934;29;86406;-78
2022/08/09 14:04:44;;;;;;;5.05;0.73;;;27.90;48.50;;;;;;4823097;29;87251;-78
2022/08/09 14:07:10;;;;;;;3.85;0.75;;;28.00;49.10;;;;;;4825129;29;87775;-78
2022/08/09 14:09:35;;;;;;;1.45;0.88;;;28.00;49.00;;;;;;4824823;29;88084;-78
2022/08/09 14:12:02;;;;;;;2.92;1.08;;;28.10;51.30;;;;;;4821564;29;87551;-78
2022/08/09 14:14:29;;;;;;;1.80;0.82;;;28.00;49.20;;;;;;4827857;29;87255;-78
2022/08/09 14:16:55;;;;;;;3.88;0.82;;;28.00;48.40;;;;;;4823416;29;87404;-78
2022/08/09 14:19:22;;;;;;;2.72;0.75;;;28.00;49.60;;;;;;4825278;29;86935;-78
2022/08/09 14:21:48;;;;;;;6.22;0.85;;;27.90;52.30;;;;;;4824348;29;87026;-78
2022/08/09 14:24:15;;;;;;;2.72;0.82;;;27.90;51.60;;;;;;4824777;29;87987;-78
2022/08/09 14:26:43;;;;;;;1.90;1.20;;;27.80;50.10;;;;;;4822725;29;86918;-78
2022/08/09 14:29:11;;;;;;;2.42;0.90;;;27.70;51.90;;;;;;4819617;29;87027;-78
2022/08/09 14:31:37;;;;;;;3.08;0.85;;;27.80;51.70;;;;;;4816837;29;87470;-78
2022/08/09 14:34:03;;;;;;;1.98;0.73;;;28.00;49.20;;;;;;4807408;29;87851;-78
2022/08/09 14:36:30;;;;;;;1.85;0.90;;;27.80;51.30;;;;;;4808405;29;88164;-78
2022/08/09 14:38:56;;;;;;;3.67;1.00;;;27.80;49.10;;;;;;4813242;29;88527;-78
2022/08/09 14:41:22;;;;;;;2.00;0.80;;;27.70;50.80;;;;;;4820908;29;87378;-78
2022/08/09 14:43:48;;;;;;;1.85;0.95;;;27.70;51.20;;;;;;4823631;29;87084;-77
2022/08/09 14:46:14;;;;;;;2.55;0.90;;;27.90;51.70;;;;;;4822811;29;87235;-78
2022/08/09 14:48:40;;;;;;;1.55;0.63;;;27.90;49.10;;;;;;4820637;29;87092;-78
2022/08/09 14:51:06;;;;;;;2.10;0.70;;;27.70;49.70;;;;;;4822614;29;86571;-78
2022/08/09 14:53:31;;;;;;;4.53;0.82;;;27.60;50.90;;;;;;4822413;29;86835;-78
2022/08/09 14:55:57;;;;;;;1.35;0.93;;;27.60;52.90;;;;;;4823351;29;87104;-78
2022/08/09 14:58:23;;;;;;;1.73;0.80;;;27.60;52.90;;;;;;4821662;29;87431;-78
2022/08/09 15:00:49;;;;;;;1.88;0.75;;;27.70;50.30;;;;;;4822828;29;87218;-78
2022/08/09 15:03:15;;;;;;;1.75;0.68;;;27.60;51.50;;;;;;4820853;29;87594;-78
2022/08/09 15:05:41;;;;;;;1.80;1.05;;;27.60;50.60;;;;;;4822250;29;87057;-78
2022/08/09 15:08:07;;;;;;;2.88;0.82;;;27.80;51.10;;;;;;4821867;29;87109;-78
2022/08/09 15:10:34;;;;;;;2.92;0.85;;;27.70;49.50;;;;;;4822480;29;87068;-78
2022/08/09 15:13:01;;;;;;;1.27;0.70;;;27.60;49.20;;;;;;4823970;29;87514;-78
2022/08/09 15:15:27;;;;;;;3.55;0.75;;;27.80;48.50;;;;;;4823194;29;86874;-78
2022/08/09 15:17:53;;;;;;;2.95;0.90;;;27.70;50.80;;;;;;4822293;29;87269;-78
2022/08/09 15:20:22;;;;;;;0.98;0.50;;;27.50;52.00;;;;;;4816177;29;87991;-79
2022/08/09 15:22:48;;;;;;;5.57;1.10;;;27.60;50.00;;;;;;4822113;29;88592;-78
2022/08/09 15:25:14;;;;;;;1.13;0.63;;;27.60;48.40;;;;;;4829690;29;89341;-78
2022/08/09 15:27:40;;;;;;;3.08;0.60;;;27.70;49.10;;;;;;4821646;29;87140;-78
2022/08/09 15:30:07;;;;;;;2.63;0.80;;;27.60;49.40;;;;;;4821404;29;87378;-78
2022/08/09 15:32:32;;;;;;;4.47;0.68;;;27.50;49.20;;;;;;4821481;29;87540;-78
2022/08/09 15:34:59;;;;;;;2.85;0.85;;;27.60;49.10;;;;;;4823190;29;87313;-78
2022/08/09 15:37:35;;;;;;;2.00;0.77;;;27.50;50.60;;;;;;4820862;29;87138;-78
2022/08/09 15:40:19;;;;;;;1.80;0.70;;;27.50;48.60;;;;;;4818347;29;86782;-78